sensor_id;sensor_type;location;lat;lon;timestamp;temperature;humidity
63094;DHT22;49183;51.380;0.098;2023-11-22T00:00:52;4.30;91.70
63094;DHT22;49183;51.380;0.098;2023-11-22T00:03:19;4.40;91.80
63094;DHT22;49183;51.380;0.098;2023-11-22T00:05:48;4.40;91.80
63094;DHT22;49183;51.380;0.098;2023-11-22T00:08:15;4.50;91.80
63094;DHT22;49183;51.380;0.098;2023-11-22T00:10:43;4.70;91.80
63094;DHT22;49183;51.380;0.098;2023-11-22T00:13:12;4.80;91.70
63094;DHT22;49183;51.380;0.098;2023-11-22T00:15:39;4.80;91.70
63094;DHT22;49183;51.380;0.098;2023-11-22T00:18:07;4.90;91.60
63094;DHT22;49183;51.380;0.098;2023-11-22T00:20:34;4.90;91.60
63094;DHT22;49183;51.380;0.098;2023-11-22T00:23:02;5.00;91.60
63094;DHT22;49183;51.380;0.098;2023-11-22T00:25:33;5.00;91.60
63094;DHT22;49183;51.380;0.098;2023-11-22T00:28:01;5.00;91.60
63094;DHT22;49183;51.380;0.098;2023-11-22T00:30:29;4.90;91.60
63094;DHT22;49183;51.380;0.098;2023-11-22T00:32:56;5.00;91.70
63094;DHT22;49183;51.380;0.098;2023-11-22T00:35:25;5.00;91.70
63094;DHT22;49183;51.380;0.098;2023-11-22T00:37:53;5.00;91.70
63094;DHT22;49183;51.380;0.098;2023-11-22T00:40:21;5.00;91.80
63094;DHT22;49183;51.380;0.098;2023-11-22T00:42:49;5.00;91.80
63094;DHT22;49183;51.380;0.098;2023-11-22T00:45:16;5.00;91.80
63094;DHT22;49183;51.380;0.098;2023-11-22T00:47:45;5.00;91.90
63094;DHT22;49183;51.380;0.098;2023-11-22T00:50:14;5.00;91.90
63094;DHT22;49183;51.380;0.098;2023-11-22T00:52:41;5.10;91.90
63094;DHT22;49183;51.380;0.098;2023-11-22T00:55:12;5.20;91.90
63094;DHT22;49183;51.380;0.098;2023-11-22T00:57:40;5.10;91.90
63094;DHT22;49183;51.380;0.098;2023-11-22T01:00:08;5.20;91.90
63094;DHT22;49183;51.380;0.098;2023-11-22T01:02:37;5.20;91.90
63094;DHT22;49183;51.380;0.098;2023-11-22T01:05:08;5.20;91.90
63094;DHT22;49183;51.380;0.098;2023-11-22T01:07:40;5.30;91.90
63094;DHT22;49183;51.380;0.098;2023-11-22T01:10:07;5.30;91.90
63094;DHT22;49183;51.380;0.098;2023-11-22T01:12:36;5.30;91.90
63094;DHT22;49183;51.380;0.098;2023-11-22T01:15:04;5.30;91.90
63094;DHT22;49183;51.380;0.098;2023-11-22T01:17:34;5.20;91.90
63094;DHT22;49183;51.380;0.098;2023-11-22T01:20:02;5.30;91.90
63094;DHT22;49183;51.380;0.098;2023-11-22T01:22:31;5.20;91.90
63094;DHT22;49183;51.380;0.098;2023-11-22T01:24:59;5.20;91.90
63094;DHT22;49183;51.380;0.098;2023-11-22T01:27:26;5.20;92.00
63094;DHT22;49183;51.380;0.098;2023-11-22T01:29:54;5.30;92.00
63094;DHT22;49183;51.380;0.098;2023-11-22T01:32:23;5.30;92.00
63094;DHT22;49183;51.380;0.098;2023-11-22T01:34:51;5.30;92.00
63094;DHT22;49183;51.380;0.098;2023-11-22T01:37:19;5.30;92.00
63094;DHT22;49183;51.380;0.098;2023-11-22T01:39:47;5.30;92.00
63094;DHT22;49183;51.380;0.098;2023-11-22T01:42:16;5.40;92.00
63094;DHT22;49183;51.380;0.098;2023-11-22T01:44:44;5.40;92.00
63094;DHT22;49183;51.380;0.098;2023-11-22T01:47:11;5.40;91.90
63094;DHT22;49183;51.380;0.098;2023-11-22T01:49:39;5.40;91.90
63094;DHT22;49183;51.380;0.098;2023-11-22T01:52:06;5.50;91.90
63094;DHT22;49183;51.380;0.098;2023-11-22T01:54:34;5.50;91.90
63094;DHT22;49183;51.380;0.098;2023-11-22T01:57:02;5.60;91.80
63094;DHT22;49183;51.380;0.098;2023-11-22T01:59:30;5.60;91.80
63094;DHT22;49183;51.380;0.098;2023-11-22T02:01:59;5.60;91.80
63094;DHT22;49183;51.380;0.098;2023-11-22T02:04:27;5.60;91.80
63094;DHT22;49183;51.380;0.098;2023-11-22T02:06:55;5.70;91.70
63094;DHT22;49183;51.380;0.098;2023-11-22T02:09:23;5.70;91.70
63094;DHT22;49183;51.380;0.098;2023-11-22T02:11:52;5.70;91.70
63094;DHT22;49183;51.380;0.098;2023-11-22T02:14:20;5.80;91.70
63094;DHT22;49183;51.380;0.098;2023-11-22T02:16:48;5.80;91.70
63094;DHT22;49183;51.380;0.098;2023-11-22T02:19:18;5.80;91.60
63094;DHT22;49183;51.380;0.098;2023-11-22T02:21:46;5.80;91.60
63094;DHT22;49183;51.380;0.098;2023-11-22T02:24:14;5.80;91.60
63094;DHT22;49183;51.380;0.098;2023-11-22T02:26:45;5.80;91.60
63094;DHT22;49183;51.380;0.098;2023-11-22T02:29:14;5.80;91.60
63094;DHT22;49183;51.380;0.098;2023-11-22T02:31:43;5.90;91.60
63094;DHT22;49183;51.380;0.098;2023-11-22T02:34:11;5.90;91.50
63094;DHT22;49183;51.380;0.098;2023-11-22T02:36:41;5.90;91.50
63094;DHT22;49183;51.380;0.098;2023-11-22T02:39:21;5.90;91.40
63094;DHT22;49183;51.380;0.098;2023-11-22T02:41:51;5.90;91.40
63094;DHT22;49183;51.380;0.098;2023-11-22T02:44:19;6.00;91.40
63094;DHT22;49183;51.380;0.098;2023-11-22T02:46:47;6.00;91.40
63094;DHT22;49183;51.380;0.098;2023-11-22T02:49:15;6.00;91.30
63094;DHT22;49183;51.380;0.098;2023-11-22T02:51:43;6.00;91.30
63094;DHT22;49183;51.380;0.098;2023-11-22T02:54:10;6.00;91.30
63094;DHT22;49183;51.380;0.098;2023-11-22T02:56:38;6.10;91.30
63094;DHT22;49183;51.380;0.098;2023-11-22T02:59:05;6.10;91.20
63094;DHT22;49183;51.380;0.098;2023-11-22T03:01:40;6.10;91.20
63094;DHT22;49183;51.380;0.098;2023-11-22T03:04:10;6.10;91.20
63094;DHT22;49183;51.380;0.098;2023-11-22T03:06:38;6.10;91.20
63094;DHT22;49183;51.380;0.098;2023-11-22T03:09:05;6.10;91.10
63094;DHT22;49183;51.380;0.098;2023-11-22T03:11:35;6.10;91.10
63094;DHT22;49183;51.380;0.098;2023-11-22T03:14:04;6.10;91.10
63094;DHT22;49183;51.380;0.098;2023-11-22T03:16:31;6.20;91.00
63094;DHT22;49183;51.380;0.098;2023-11-22T03:18:59;6.20;91.00
63094;DHT22;49183;51.380;0.098;2023-11-22T03:21:27;6.20;91.00
63094;DHT22;49183;51.380;0.098;2023-11-22T03:23:55;6.30;90.90
63094;DHT22;49183;51.380;0.098;2023-11-22T03:26:23;6.20;90.90
63094;DHT22;49183;51.380;0.098;2023-11-22T03:28:51;6.30;90.90
63094;DHT22;49183;51.380;0.098;2023-11-22T03:31:18;6.30;90.80
63094;DHT22;49183;51.380;0.098;2023-11-22T03:33:46;6.30;90.80
63094;DHT22;49183;51.380;0.098;2023-11-22T03:36:13;6.30;90.70
63094;DHT22;49183;51.380;0.098;2023-11-22T03:38:42;6.30;90.70
63094;DHT22;49183;51.380;0.098;2023-11-22T03:41:09;6.30;90.70
63094;DHT22;49183;51.380;0.098;2023-11-22T03:43:37;6.30;90.70
63094;DHT22;49183;51.380;0.098;2023-11-22T03:46:05;6.30;90.70
63094;DHT22;49183;51.380;0.098;2023-11-22T03:48:33;6.30;90.60
63094;DHT22;49183;51.380;0.098;2023-11-22T03:51:00;6.30;90.60
63094;DHT22;49183;51.380;0.098;2023-11-22T03:53:29;6.30;90.60
63094;DHT22;49183;51.380;0.098;2023-11-22T03:55:56;6.30;90.60
63094;DHT22;49183;51.380;0.098;2023-11-22T03:58:24;6.30;90.60
63094;DHT22;49183;51.380;0.098;2023-11-22T04:00:51;6.30;90.50
63094;DHT22;49183;51.380;0.098;2023-11-22T04:03:20;6.30;90.50
63094;DHT22;49183;51.380;0.098;2023-11-22T04:05:48;6.30;90.50
63094;DHT22;49183;51.380;0.098;2023-11-22T04:08:15;6.30;90.50
63094;DHT22;49183;51.380;0.098;2023-11-22T04:10:43;6.30;90.40
63094;DHT22;49183;51.380;0.098;2023-11-22T04:13:11;6.20;90.40
63094;DHT22;49183;51.380;0.098;2023-11-22T04:15:39;6.30;90.40
63094;DHT22;49183;51.380;0.098;2023-11-22T04:18:06;6.30;90.40
63094;DHT22;49183;51.380;0.098;2023-11-22T04:20:35;6.20;90.30
63094;DHT22;49183;51.380;0.098;2023-11-22T04:23:02;6.20;90.30
63094;DHT22;49183;51.380;0.098;2023-11-22T04:25:30;6.20;90.30
63094;DHT22;49183;51.380;0.098;2023-11-22T04:27:58;6.20;90.40
63094;DHT22;49183;51.380;0.098;2023-11-22T04:30:26;6.10;90.40
63094;DHT22;49183;51.380;0.098;2023-11-22T04:32:54;6.10;90.40
63094;DHT22;49183;51.380;0.098;2023-11-22T04:35:22;6.10;90.50
63094;DHT22;49183;51.380;0.098;2023-11-22T04:37:50;6.10;90.50
63094;DHT22;49183;51.380;0.098;2023-11-22T04:40:17;6.00;90.50
63094;DHT22;49183;51.380;0.098;2023-11-22T04:42:45;5.90;90.50
63094;DHT22;49183;51.380;0.098;2023-11-22T04:45:12;5.90;90.50
63094;DHT22;49183;51.380;0.098;2023-11-22T04:47:40;5.90;90.60
63094;DHT22;49183;51.380;0.098;2023-11-22T04:50:08;5.80;90.70
63094;DHT22;49183;51.380;0.098;2023-11-22T04:52:37;5.80;90.70
63094;DHT22;49183;51.380;0.098;2023-11-22T04:55:04;5.70;90.80
63094;DHT22;49183;51.380;0.098;2023-11-22T04:57:33;5.70;90.80
63094;DHT22;49183;51.380;0.098;2023-11-22T05:00:01;5.60;90.80
63094;DHT22;49183;51.380;0.098;2023-11-22T05:02:28;5.60;90.80
63094;DHT22;49183;51.380;0.098;2023-11-22T05:04:56;5.60;90.90
63094;DHT22;49183;51.380;0.098;2023-11-22T05:07:24;5.60;91.00
63094;DHT22;49183;51.380;0.098;2023-11-22T05:09:52;5.50;90.90
63094;DHT22;49183;51.380;0.098;2023-11-22T05:12:19;5.50;90.90
63094;DHT22;49183;51.380;0.098;2023-11-22T05:14:47;5.50;90.90
63094;DHT22;49183;51.380;0.098;2023-11-22T05:17:15;5.50;90.90
63094;DHT22;49183;51.380;0.098;2023-11-22T05:19:43;5.50;91.00
63094;DHT22;49183;51.380;0.098;2023-11-22T05:22:10;5.50;91.00
63094;DHT22;49183;51.380;0.098;2023-11-22T05:24:38;5.50;91.00
63094;DHT22;49183;51.380;0.098;2023-11-22T05:27:09;5.50;91.00
63094;DHT22;49183;51.380;0.098;2023-11-22T05:29:36;5.50;91.00
63094;DHT22;49183;51.380;0.098;2023-11-22T05:32:13;5.50;91.00
63094;DHT22;49183;51.380;0.098;2023-11-22T05:34:41;5.50;91.00
63094;DHT22;49183;51.380;0.098;2023-11-22T05:37:09;5.50;91.00
63094;DHT22;49183;51.380;0.098;2023-11-22T05:39:37;5.50;91.00
63094;DHT22;49183;51.380;0.098;2023-11-22T05:42:05;5.50;90.90
63094;DHT22;49183;51.380;0.098;2023-11-22T05:44:33;5.50;90.90
63094;DHT22;49183;51.380;0.098;2023-11-22T05:47:00;5.50;91.00
63094;DHT22;49183;51.380;0.098;2023-11-22T05:49:29;5.40;91.00
63094;DHT22;49183;51.380;0.098;2023-11-22T05:51:56;5.40;91.10
63094;DHT22;49183;51.380;0.098;2023-11-22T05:54:24;5.50;91.10
63094;DHT22;49183;51.380;0.098;2023-11-22T05:56:52;5.40;91.10
63094;DHT22;49183;51.380;0.098;2023-11-22T05:59:20;5.40;91.10
63094;DHT22;49183;51.380;0.098;2023-11-22T06:01:48;5.50;91.10
63094;DHT22;49183;51.380;0.098;2023-11-22T06:04:15;5.60;91.20
63094;DHT22;49183;51.380;0.098;2023-11-22T06:06:43;5.60;91.20
63094;DHT22;49183;51.380;0.098;2023-11-22T06:09:11;5.80;91.20
63094;DHT22;49183;51.380;0.098;2023-11-22T06:11:42;5.90;91.20
63094;DHT22;49183;51.380;0.098;2023-11-22T06:14:09;6.00;91.20
63094;DHT22;49183;51.380;0.098;2023-11-22T06:16:37;6.10;91.10
63094;DHT22;49183;51.380;0.098;2023-11-22T06:19:05;6.20;91.00
63094;DHT22;49183;51.380;0.098;2023-11-22T06:21:34;6.30;91.00
63094;DHT22;49183;51.380;0.098;2023-11-22T06:24:03;6.40;90.90
63094;DHT22;49183;51.380;0.098;2023-11-22T06:26:35;6.50;90.90
63094;DHT22;49183;51.380;0.098;2023-11-22T06:29:04;6.50;90.80
63094;DHT22;49183;51.380;0.098;2023-11-22T06:31:31;6.60;90.80
63094;DHT22;49183;51.380;0.098;2023-11-22T06:34:00;6.60;90.70
63094;DHT22;49183;51.380;0.098;2023-11-22T06:36:28;6.70;90.70
63094;DHT22;49183;51.380;0.098;2023-11-22T06:38:56;6.70;90.70
63094;DHT22;49183;51.380;0.098;2023-11-22T06:41:24;6.80;90.70
63094;DHT22;49183;51.380;0.098;2023-11-22T06:43:53;6.80;90.80
63094;DHT22;49183;51.380;0.098;2023-11-22T06:46:20;6.80;90.80
63094;DHT22;49183;51.380;0.098;2023-11-22T06:48:50;6.80;90.80
63094;DHT22;49183;51.380;0.098;2023-11-22T06:51:18;6.80;90.80
63094;DHT22;49183;51.380;0.098;2023-11-22T06:53:45;6.80;90.80
63094;DHT22;49183;51.380;0.098;2023-11-22T06:56:13;6.80;90.80
63094;DHT22;49183;51.380;0.098;2023-11-22T06:58:42;6.80;90.80
63094;DHT22;49183;51.380;0.098;2023-11-22T07:01:10;6.80;90.90
63094;DHT22;49183;51.380;0.098;2023-11-22T07:03:40;6.80;90.90
63094;DHT22;49183;51.380;0.098;2023-11-22T07:06:08;6.80;90.90
63094;DHT22;49183;51.380;0.098;2023-11-22T07:08:36;6.80;91.00
63094;DHT22;49183;51.380;0.098;2023-11-22T07:11:03;6.80;91.00
63094;DHT22;49183;51.380;0.098;2023-11-22T07:13:31;6.80;91.00
63094;DHT22;49183;51.380;0.098;2023-11-22T07:15:59;6.90;91.00
63094;DHT22;49183;51.380;0.098;2023-11-22T07:18:27;6.80;91.00
63094;DHT22;49183;51.380;0.098;2023-11-22T07:20:55;6.90;91.00
63094;DHT22;49183;51.380;0.098;2023-11-22T07:23:23;6.90;91.00
63094;DHT22;49183;51.380;0.098;2023-11-22T07:25:56;6.80;91.00
63094;DHT22;49183;51.380;0.098;2023-11-22T07:28:24;6.80;91.00
63094;DHT22;49183;51.380;0.098;2023-11-22T07:30:52;6.80;91.10
63094;DHT22;49183;51.380;0.098;2023-11-22T07:33:20;6.70;91.10
63094;DHT22;49183;51.380;0.098;2023-11-22T07:35:48;6.70;91.10
63094;DHT22;49183;51.380;0.098;2023-11-22T07:38:16;6.60;91.20
63094;DHT22;49183;51.380;0.098;2023-11-22T07:40:44;6.60;91.30
63094;DHT22;49183;51.380;0.098;2023-11-22T07:43:12;6.50;91.40
63094;DHT22;49183;51.380;0.098;2023-11-22T07:45:40;6.50;91.50
63094;DHT22;49183;51.380;0.098;2023-11-22T07:48:08;6.60;91.50
63094;DHT22;49183;51.380;0.098;2023-11-22T07:50:38;6.60;91.50
63094;DHT22;49183;51.380;0.098;2023-11-22T07:53:06;6.60;91.50
63094;DHT22;49183;51.380;0.098;2023-11-22T07:55:36;6.60;91.50
63094;DHT22;49183;51.380;0.098;2023-11-22T07:58:05;6.60;91.50
63094;DHT22;49183;51.380;0.098;2023-11-22T08:00:36;6.70;91.50
63094;DHT22;49183;51.380;0.098;2023-11-22T08:03:04;6.80;91.50
63094;DHT22;49183;51.380;0.098;2023-11-22T08:05:34;6.80;91.40
63094;DHT22;49183;51.380;0.098;2023-11-22T08:08:04;6.80;91.30
63094;DHT22;49183;51.380;0.098;2023-11-22T08:10:36;6.80;91.30
63094;DHT22;49183;51.380;0.098;2023-11-22T08:13:05;6.80;91.30
63094;DHT22;49183;51.380;0.098;2023-11-22T08:15:33;6.80;91.40
63094;DHT22;49183;51.380;0.098;2023-11-22T08:18:00;6.80;91.50
63094;DHT22;49183;51.380;0.098;2023-11-22T08:20:30;6.90;91.50
63094;DHT22;49183;51.380;0.098;2023-11-22T08:22:58;7.10;91.50
63094;DHT22;49183;51.380;0.098;2023-11-22T08:25:27;7.20;91.40
63094;DHT22;49183;51.380;0.098;2023-11-22T08:27:55;7.30;91.40
63094;DHT22;49183;51.380;0.098;2023-11-22T08:30:23;7.40;91.30
63094;DHT22;49183;51.380;0.098;2023-11-22T08:32:51;7.50;91.20
63094;DHT22;49183;51.380;0.098;2023-11-22T08:35:22;7.50;91.20
63094;DHT22;49183;51.380;0.098;2023-11-22T08:37:51;7.60;91.20
63094;DHT22;49183;51.380;0.098;2023-11-22T08:40:19;7.70;91.10
63094;DHT22;49183;51.380;0.098;2023-11-22T08:42:49;7.80;91.20
63094;DHT22;49183;51.380;0.098;2023-11-22T08:45:17;7.90;91.10
63094;DHT22;49183;51.380;0.098;2023-11-22T08:47:45;8.00;91.10
63094;DHT22;49183;51.380;0.098;2023-11-22T08:50:14;8.10;91.00
63094;DHT22;49183;51.380;0.098;2023-11-22T08:52:43;8.20;91.00
63094;DHT22;49183;51.380;0.098;2023-11-22T08:55:12;8.30;90.90
63094;DHT22;49183;51.380;0.098;2023-11-22T08:57:42;8.30;90.90
63094;DHT22;49183;51.380;0.098;2023-11-22T09:00:10;8.40;90.80
63094;DHT22;49183;51.380;0.098;2023-11-22T09:02:38;8.50;90.80
63094;DHT22;49183;51.380;0.098;2023-11-22T09:05:07;8.50;90.70
63094;DHT22;49183;51.380;0.098;2023-11-22T09:07:40;8.60;90.70
63094;DHT22;49183;51.380;0.098;2023-11-22T09:10:08;8.70;90.60
63094;DHT22;49183;51.380;0.098;2023-11-22T09:12:38;8.80;90.60
63094;DHT22;49183;51.380;0.098;2023-11-22T09:15:10;8.80;90.50
63094;DHT22;49183;51.380;0.098;2023-11-22T09:17:43;8.80;90.50
63094;DHT22;49183;51.380;0.098;2023-11-22T09:20:12;8.90;90.50
63094;DHT22;49183;51.380;0.098;2023-11-22T09:22:48;9.00;90.50
63094;DHT22;49183;51.380;0.098;2023-11-22T09:25:17;9.10;90.40
63094;DHT22;49183;51.380;0.098;2023-11-22T09:27:47;9.20;90.40
63094;DHT22;49183;51.380;0.098;2023-11-22T09:30:16;9.20;90.30
63094;DHT22;49183;51.380;0.098;2023-11-22T09:33:01;9.20;90.30
63094;DHT22;49183;51.380;0.098;2023-11-22T09:35:29;9.30;90.30
63094;DHT22;49183;51.380;0.098;2023-11-22T09:37:59;9.30;90.20
63094;DHT22;49183;51.380;0.098;2023-11-22T09:40:27;9.30;90.20
63094;DHT22;49183;51.380;0.098;2023-11-22T09:42:56;9.30;90.20
63094;DHT22;49183;51.380;0.098;2023-11-22T09:45:25;9.30;90.20
63094;DHT22;49183;51.380;0.098;2023-11-22T09:47:53;9.20;90.30
63094;DHT22;49183;51.380;0.098;2023-11-22T09:55:53;9.20;90.30
63094;DHT22;49183;51.380;0.098;2023-11-22T09:58:21;9.20;90.30
63094;DHT22;49183;51.380;0.098;2023-11-22T10:00:49;9.10;90.30
63094;DHT22;49183;51.380;0.098;2023-11-22T10:03:17;9.10;90.30
63094;DHT22;49183;51.380;0.098;2023-11-22T10:05:46;9.10;90.30
63094;DHT22;49183;51.380;0.098;2023-11-22T10:08:15;9.10;90.30
63094;DHT22;49183;51.380;0.098;2023-11-22T10:10:44;9.10;90.40
63094;DHT22;49183;51.380;0.098;2023-11-22T10:13:15;9.10;90.40
63094;DHT22;49183;51.380;0.098;2023-11-22T10:15:43;9.20;90.40
63094;DHT22;49183;51.380;0.098;2023-11-22T10:18:10;9.20;90.40
63094;DHT22;49183;51.380;0.098;2023-11-22T10:25:44;9.20;90.40
63094;DHT22;49183;51.380;0.098;2023-11-22T10:28:12;9.20;90.40
63094;DHT22;49183;51.380;0.098;2023-11-22T10:30:40;9.30;90.40
63094;DHT22;49183;51.380;0.098;2023-11-22T10:33:12;9.30;90.40
63094;DHT22;49183;51.380;0.098;2023-11-22T10:35:51;9.30;90.40
63094;DHT22;49183;51.380;0.098;2023-11-22T10:38:19;9.40;90.40
63094;DHT22;49183;51.380;0.098;2023-11-22T10:40:47;9.40;90.40
63094;DHT22;49183;51.380;0.098;2023-11-22T10:43:15;9.50;90.40
63094;DHT22;49183;51.380;0.098;2023-11-22T10:45:44;9.50;90.40
63094;DHT22;49183;51.380;0.098;2023-11-22T10:48:19;9.50;90.30
63094;DHT22;49183;51.380;0.098;2023-11-22T10:50:48;9.60;90.30
63094;DHT22;49183;51.380;0.098;2023-11-22T10:53:20;9.60;90.20
63094;DHT22;49183;51.380;0.098;2023-11-22T10:55:49;9.60;90.20
63094;DHT22;49183;51.380;0.098;2023-11-22T10:58:18;9.70;90.20
63094;DHT22;49183;51.380;0.098;2023-11-22T11:00:47;9.70;90.10
63094;DHT22;49183;51.380;0.098;2023-11-22T11:03:18;9.70;90.10
63094;DHT22;49183;51.380;0.098;2023-11-22T11:05:57;9.80;90.00
63094;DHT22;49183;51.380;0.098;2023-11-22T11:08:26;9.80;90.00
63094;DHT22;49183;51.380;0.098;2023-11-22T11:10:55;9.80;90.00
63094;DHT22;49183;51.380;0.098;2023-11-22T11:13:23;9.90;89.90
63094;DHT22;49183;51.380;0.098;2023-11-22T11:15:52;9.90;89.80
63094;DHT22;49183;51.380;0.098;2023-11-22T11:18:20;9.90;89.80
63094;DHT22;49183;51.380;0.098;2023-11-22T11:20:53;9.90;89.80
63094;DHT22;49183;51.380;0.098;2023-11-22T11:23:22;10.00;89.90
63094;DHT22;49183;51.380;0.098;2023-11-22T11:25:50;10.00;89.80
63094;DHT22;49183;51.380;0.098;2023-11-22T11:28:18;10.10;89.80
63094;DHT22;49183;51.380;0.098;2023-11-22T11:30:47;10.10;89.80
63094;DHT22;49183;51.380;0.098;2023-11-22T11:33:18;10.10;89.80
63094;DHT22;49183;51.380;0.098;2023-11-22T11:35:48;10.10;89.80
63094;DHT22;49183;51.380;0.098;2023-11-22T11:38:17;10.10;89.80
63094;DHT22;49183;51.380;0.098;2023-11-22T11:40:46;10.20;89.80
63094;DHT22;49183;51.380;0.098;2023-11-22T11:43:15;10.20;89.80
63094;DHT22;49183;51.380;0.098;2023-11-22T11:45:43;10.20;89.80
63094;DHT22;49183;51.380;0.098;2023-11-22T11:48:14;10.30;89.80
63094;DHT22;49183;51.380;0.098;2023-11-22T11:50:46;10.30;89.80
63094;DHT22;49183;51.380;0.098;2023-11-22T11:53:18;10.30;89.80
63094;DHT22;49183;51.380;0.098;2023-11-22T11:55:46;10.30;89.70
63094;DHT22;49183;51.380;0.098;2023-11-22T11:58:14;10.30;89.70
63094;DHT22;49183;51.380;0.098;2023-11-22T12:00:44;10.40;89.70
63094;DHT22;49183;51.380;0.098;2023-11-22T12:03:12;10.50;89.60
63094;DHT22;49183;51.380;0.098;2023-11-22T12:05:39;10.50;89.60
63094;DHT22;49183;51.380;0.098;2023-11-22T12:08:07;10.60;89.50
63094;DHT22;49183;51.380;0.098;2023-11-22T12:10:36;10.60;89.40
63094;DHT22;49183;51.380;0.098;2023-11-22T12:13:04;10.60;89.40
63094;DHT22;49183;51.380;0.098;2023-11-22T12:15:32;10.70;89.30
63094;DHT22;49183;51.380;0.098;2023-11-22T12:18:03;10.70;89.20
63094;DHT22;49183;51.380;0.098;2023-11-22T12:20:31;10.80;89.10
63094;DHT22;49183;51.380;0.098;2023-11-22T12:23:00;10.80;89.10
63094;DHT22;49183;51.380;0.098;2023-11-22T12:25:28;10.80;89.10
63094;DHT22;49183;51.380;0.098;2023-11-22T12:27:55;10.90;89.00
63094;DHT22;49183;51.380;0.098;2023-11-22T12:33:05;11.00;88.90
63094;DHT22;49183;51.380;0.098;2023-11-22T12:35:34;11.10;88.70
63094;DHT22;49183;51.380;0.098;2023-11-22T12:38:02;11.10;88.70
63094;DHT22;49183;51.380;0.098;2023-11-22T12:40:34;11.10;88.60
63094;DHT22;49183;51.380;0.098;2023-11-22T12:43:02;11.20;88.50
63094;DHT22;49183;51.380;0.098;2023-11-22T12:45:31;11.20;88.50
63094;DHT22;49183;51.380;0.098;2023-11-22T12:48:22;11.20;88.40
63094;DHT22;49183;51.380;0.098;2023-11-22T12:50:55;11.20;88.30
63094;DHT22;49183;51.380;0.098;2023-11-22T12:53:23;11.30;88.30
63094;DHT22;49183;51.380;0.098;2023-11-22T12:55:56;11.30;88.30
63094;DHT22;49183;51.380;0.098;2023-11-22T12:58:24;11.30;88.20
63094;DHT22;49183;51.380;0.098;2023-11-22T13:00:53;11.40;88.10
63094;DHT22;49183;51.380;0.098;2023-11-22T13:03:28;11.40;88.00
63094;DHT22;49183;51.380;0.098;2023-11-22T13:05:56;11.40;88.00
63094;DHT22;49183;51.380;0.098;2023-11-22T13:08:24;11.50;88.00
63094;DHT22;49183;51.380;0.098;2023-11-22T13:10:57;11.50;88.00
63094;DHT22;49183;51.380;0.098;2023-11-22T13:13:27;11.50;87.80
63094;DHT22;49183;51.380;0.098;2023-11-22T13:15:56;11.50;87.80
63094;DHT22;49183;51.380;0.098;2023-11-22T13:18:24;11.50;87.70
63094;DHT22;49183;51.380;0.098;2023-11-22T13:20:54;11.50;87.70
63094;DHT22;49183;51.380;0.098;2023-11-22T13:23:24;11.50;87.80
63094;DHT22;49183;51.380;0.098;2023-11-22T13:25:52;11.50;87.70
63094;DHT22;49183;51.380;0.098;2023-11-22T13:28:19;11.60;87.70
63094;DHT22;49183;51.380;0.098;2023-11-22T13:30:47;11.60;87.60
63094;DHT22;49183;51.380;0.098;2023-11-22T13:33:17;11.60;87.60
63094;DHT22;49183;51.380;0.098;2023-11-22T13:35:46;11.60;87.60
63094;DHT22;49183;51.380;0.098;2023-11-22T13:38:15;11.60;87.60
63094;DHT22;49183;51.380;0.098;2023-11-22T13:40:43;11.60;87.50
63094;DHT22;49183;51.380;0.098;2023-11-22T13:43:13;11.60;87.60
63094;DHT22;49183;51.380;0.098;2023-11-22T13:45:41;11.70;87.60
63094;DHT22;49183;51.380;0.098;2023-11-22T13:48:09;11.70;87.60
63094;DHT22;49183;51.380;0.098;2023-11-22T13:50:39;11.70;87.50
63094;DHT22;49183;51.380;0.098;2023-11-22T13:53:06;11.70;87.50
63094;DHT22;49183;51.380;0.098;2023-11-22T13:55:37;11.70;87.50
63094;DHT22;49183;51.380;0.098;2023-11-22T13:58:06;11.70;87.40
63094;DHT22;49183;51.380;0.098;2023-11-22T14:00:35;11.70;87.40
63094;DHT22;49183;51.380;0.098;2023-11-22T14:03:03;11.80;87.30
63094;DHT22;49183;51.380;0.098;2023-11-22T14:05:37;11.70;87.40
63094;DHT22;49183;51.380;0.098;2023-11-22T14:08:06;11.80;87.40
63094;DHT22;49183;51.380;0.098;2023-11-22T14:10:34;11.80;87.40
63094;DHT22;49183;51.380;0.098;2023-11-22T14:13:02;11.80;87.30
63094;DHT22;49183;51.380;0.098;2023-11-22T14:15:31;11.70;87.30
63094;DHT22;49183;51.380;0.098;2023-11-22T14:17:59;11.70;87.30
63094;DHT22;49183;51.380;0.098;2023-11-22T14:20:27;11.80;87.30
63094;DHT22;49183;51.380;0.098;2023-11-22T14:22:57;11.80;87.30
63094;DHT22;49183;51.380;0.098;2023-11-22T14:25:25;11.80;87.30
63094;DHT22;49183;51.380;0.098;2023-11-22T14:27:54;11.80;87.30
63094;DHT22;49183;51.380;0.098;2023-11-22T14:30:23;11.80;87.20
63094;DHT22;49183;51.380;0.098;2023-11-22T14:32:52;11.80;87.20
63094;DHT22;49183;51.380;0.098;2023-11-22T14:35:20;11.80;87.20
63094;DHT22;49183;51.380;0.098;2023-11-22T14:37:49;11.70;87.10
63094;DHT22;49183;51.380;0.098;2023-11-22T14:40:16;11.80;87.10
63094;DHT22;49183;51.380;0.098;2023-11-22T14:42:47;11.80;87.00
63094;DHT22;49183;51.380;0.098;2023-11-22T14:45:19;11.80;86.90
63094;DHT22;49183;51.380;0.098;2023-11-22T14:47:50;11.70;86.80
63094;DHT22;49183;51.380;0.098;2023-11-22T14:50:21;11.70;86.80
63094;DHT22;49183;51.380;0.098;2023-11-22T14:52:53;11.70;86.90
63094;DHT22;49183;51.380;0.098;2023-11-22T14:55:20;11.60;86.90
63094;DHT22;49183;51.380;0.098;2023-11-22T14:57:50;11.60;86.90
63094;DHT22;49183;51.380;0.098;2023-11-22T15:00:18;11.60;86.80
63094;DHT22;49183;51.380;0.098;2023-11-22T15:02:47;11.60;86.80
63094;DHT22;49183;51.380;0.098;2023-11-22T15:05:20;11.60;86.80
63094;DHT22;49183;51.380;0.098;2023-11-22T15:07:47;11.50;86.80
63094;DHT22;49183;51.380;0.098;2023-11-22T15:10:22;11.40;86.80
63094;DHT22;49183;51.380;0.098;2023-11-22T15:12:49;11.40;86.60
63094;DHT22;49183;51.380;0.098;2023-11-22T15:15:18;11.40;86.60
63094;DHT22;49183;51.380;0.098;2023-11-22T15:17:46;11.40;86.60
63094;DHT22;49183;51.380;0.098;2023-11-22T15:20:14;11.30;86.60
63094;DHT22;49183;51.380;0.098;2023-11-22T15:22:43;11.30;86.60
63094;DHT22;49183;51.380;0.098;2023-11-22T15:25:11;11.30;86.60
63094;DHT22;49183;51.380;0.098;2023-11-22T15:27:39;11.30;86.60
63094;DHT22;49183;51.380;0.098;2023-11-22T15:30:07;11.20;86.60
63094;DHT22;49183;51.380;0.098;2023-11-22T15:32:37;11.20;86.70
63094;DHT22;49183;51.380;0.098;2023-11-22T15:35:05;11.10;86.70
63094;DHT22;49183;51.380;0.098;2023-11-22T15:37:33;11.20;86.80
63094;DHT22;49183;51.380;0.098;2023-11-22T15:40:00;11.20;86.80
63094;DHT22;49183;51.380;0.098;2023-11-22T15:42:29;11.10;86.70
63094;DHT22;49183;51.380;0.098;2023-11-22T15:44:57;11.10;86.70
63094;DHT22;49183;51.380;0.098;2023-11-22T15:47:25;11.10;86.80
63094;DHT22;49183;51.380;0.098;2023-11-22T15:49:52;11.10;86.80
63094;DHT22;49183;51.380;0.098;2023-11-22T15:52:23;11.10;86.80
63094;DHT22;49183;51.380;0.098;2023-11-22T15:54:51;11.10;86.70
63094;DHT22;49183;51.380;0.098;2023-11-22T15:57:18;11.10;86.70
63094;DHT22;49183;51.380;0.098;2023-11-22T15:59:46;11.00;86.60
63094;DHT22;49183;51.380;0.098;2023-11-22T16:02:17;10.90;86.70
63094;DHT22;49183;51.380;0.098;2023-11-22T16:04:45;10.80;86.80